sensor_id;sensor_type;location;lat;lon;timestamp;temperature;humidity
47961;DHT22;33721;48.852;9.936;2022-10-14T00:01:25;12.60;99.90
47961;DHT22;33721;48.852;9.936;2022-10-14T00:03:52;12.60;99.90
47961;DHT22;33721;48.852;9.936;2022-10-14T00:06:25;12.60;99.90
47961;DHT22;33721;48.852;9.936;2022-10-14T00:08:51;12.60;99.90
47961;DHT22;33721;48.852;9.936;2022-10-14T00:11:22;12.50;99.90
47961;DHT22;33721;48.852;9.936;2022-10-14T00:13:49;12.50;99.90
47961;DHT22;33721;48.852;9.936;2022-10-14T00:16:23;12.50;99.90
47961;DHT22;33721;48.852;9.936;2022-10-14T00:18:49;12.50;99.90
47961;DHT22;33721;48.852;9.936;2022-10-14T00:21:15;12.50;99.90
47961;DHT22;33721;48.852;9.936;2022-10-14T00:23:42;12.50;99.90
47961;DHT22;33721;48.852;9.936;2022-10-14T00:26:24;12.50;99.90
47961;DHT22;33721;48.852;9.936;2022-10-14T00:28:51;12.50;99.90
47961;DHT22;33721;48.852;9.936;2022-10-14T00:31:17;12.50;99.90
47961;DHT22;33721;48.852;9.936;2022-10-14T00:33:43;12.50;99.90
47961;DHT22;33721;48.852;9.936;2022-10-14T00:36:11;12.50;99.90
47961;DHT22;33721;48.852;9.936;2022-10-14T00:38:37;12.50;99.90
47961;DHT22;33721;48.852;9.936;2022-10-14T00:41:04;12.40;99.90
47961;DHT22;33721;48.852;9.936;2022-10-14T00:46:20;12.50;99.90
47961;DHT22;33721;48.852;9.936;2022-10-14T00:48:46;12.50;99.90
47961;DHT22;33721;48.852;9.936;2022-10-14T00:51:12;12.40;99.90
47961;DHT22;33721;48.852;9.936;2022-10-14T00:53:41;12.40;99.90
47961;DHT22;33721;48.852;9.936;2022-10-14T00:56:08;12.40;99.90
47961;DHT22;33721;48.852;9.936;2022-10-14T00:58:35;12.40;99.90
47961;DHT22;33721;48.852;9.936;2022-10-14T01:01:00;12.40;99.90
47961;DHT22;33721;48.852;9.936;2022-10-14T01:03:26;12.40;99.90
47961;DHT22;33721;48.852;9.936;2022-10-14T01:14:52;12.50;99.90
47961;DHT22;33721;48.852;9.936;2022-10-14T01:22:37;12.40;99.90
47961;DHT22;33721;48.852;9.936;2022-10-14T01:31:04;12.50;99.90
47961;DHT22;33721;48.852;9.936;2022-10-14T01:33:35;12.50;99.90
47961;DHT22;33721;48.852;9.936;2022-10-14T01:38:52;12.50;99.90
47961;DHT22;33721;48.852;9.936;2022-10-14T01:43:49;12.50;99.90
47961;DHT22;33721;48.852;9.936;2022-10-14T01:46:17;12.50;99.90
47961;DHT22;33721;48.852;9.936;2022-10-14T01:48:47;12.50;99.90
47961;DHT22;33721;48.852;9.936;2022-10-14T01:51:21;12.50;99.90
47961;DHT22;33721;48.852;9.936;2022-10-14T01:53:57;12.50;99.90
47961;DHT22;33721;48.852;9.936;2022-10-14T01:56:27;12.50;99.90
47961;DHT22;33721;48.852;9.936;2022-10-14T01:58:54;12.40;99.90
47961;DHT22;33721;48.852;9.936;2022-10-14T02:01:20;12.40;99.90
47961;DHT22;33721;48.852;9.936;2022-10-14T02:03:46;12.40;99.90
47961;DHT22;33721;48.852;9.936;2022-10-14T02:06:26;12.30;99.90
47961;DHT22;33721;48.852;9.936;2022-10-14T02:09:00;12.30;99.90
47961;DHT22;33721;48.852;9.936;2022-10-14T02:11:36;12.30;99.90
47961;DHT22;33721;48.852;9.936;2022-10-14T02:14:31;12.30;99.90
47961;DHT22;33721;48.852;9.936;2022-10-14T02:17:06;12.30;99.90
47961;DHT22;33721;48.852;9.936;2022-10-14T02:19:51;12.30;99.90
47961;DHT22;33721;48.852;9.936;2022-10-14T02:22:32;12.30;99.90
47961;DHT22;33721;48.852;9.936;2022-10-14T02:25:22;12.30;99.90
47961;DHT22;33721;48.852;9.936;2022-10-14T02:27:49;12.30;99.90
47961;DHT22;33721;48.852;9.936;2022-10-14T02:30:18;12.30;99.90
47961;DHT22;33721;48.852;9.936;2022-10-14T02:32:45;12.30;99.90
47961;DHT22;33721;48.852;9.936;2022-10-14T02:35:14;12.30;99.90
47961;DHT22;33721;48.852;9.936;2022-10-14T02:37:43;12.30;99.90
47961;DHT22;33721;48.852;9.936;2022-10-14T02:40:23;12.30;99.90
47961;DHT22;33721;48.852;9.936;2022-10-14T02:42:50;12.30;99.90
47961;DHT22;33721;48.852;9.936;2022-10-14T02:45:17;12.30;99.90
47961;DHT22;33721;48.852;9.936;2022-10-14T02:47:43;12.30;99.90
47961;DHT22;33721;48.852;9.936;2022-10-14T02:50:09;12.30;99.90
47961;DHT22;33721;48.852;9.936;2022-10-14T02:52:35;12.40;99.90
47961;DHT22;33721;48.852;9.936;2022-10-14T02:55:00;12.40;99.90
47961;DHT22;33721;48.852;9.936;2022-10-14T02:57:26;12.40;99.90
47961;DHT22;33721;48.852;9.936;2022-10-14T02:59:51;12.40;99.90
47961;DHT22;33721;48.852;9.936;2022-10-14T03:02:17;12.40;99.90
47961;DHT22;33721;48.852;9.936;2022-10-14T03:04:43;12.30;99.90
47961;DHT22;33721;48.852;9.936;2022-10-14T03:07:08;12.30;99.90
47961;DHT22;33721;48.852;9.936;2022-10-14T03:09:34;12.30;99.90
47961;DHT22;33721;48.852;9.936;2022-10-14T03:11:59;12.30;99.90
47961;DHT22;33721;48.852;9.936;2022-10-14T03:14:25;12.30;99.90
47961;DHT22;33721;48.852;9.936;2022-10-14T03:16:51;12.20;99.90
47961;DHT22;33721;48.852;9.936;2022-10-14T03:19:16;12.20;99.90
47961;DHT22;33721;48.852;9.936;2022-10-14T03:21:42;12.20;99.90
47961;DHT22;33721;48.852;9.936;2022-10-14T03:24:08;12.20;99.90
47961;DHT22;33721;48.852;9.936;2022-10-14T03:26:34;12.20;99.90
47961;DHT22;33721;48.852;9.936;2022-10-14T03:29:00;12.30;99.90
47961;DHT22;33721;48.852;9.936;2022-10-14T03:31:25;12.20;99.90
47961;DHT22;33721;48.852;9.936;2022-10-14T03:33:51;12.20;99.90
47961;DHT22;33721;48.852;9.936;2022-10-14T03:36:17;12.10;99.90
47961;DHT22;33721;48.852;9.936;2022-10-14T03:38:43;12.00;99.90
47961;DHT22;33721;48.852;9.936;2022-10-14T03:41:08;12.00;99.90
47961;DHT22;33721;48.852;9.936;2022-10-14T03:43:34;12.00;99.90
47961;DHT22;33721;48.852;9.936;2022-10-14T03:45:59;12.00;99.90
47961;DHT22;33721;48.852;9.936;2022-10-14T03:48:25;12.00;99.90
47961;DHT22;33721;48.852;9.936;2022-10-14T03:50:51;12.00;99.90
47961;DHT22;33721;48.852;9.936;2022-10-14T03:53:16;12.00;99.90
47961;DHT22;33721;48.852;9.936;2022-10-14T03:55:42;12.10;99.90
47961;DHT22;33721;48.852;9.936;2022-10-14T03:58:08;12.20;99.90
47961;DHT22;33721;48.852;9.936;2022-10-14T04:00:34;12.20;99.90
47961;DHT22;33721;48.852;9.936;2022-10-14T04:03:00;12.20;99.90
47961;DHT22;33721;48.852;9.936;2022-10-14T04:05:26;12.20;99.90
47961;DHT22;33721;48.852;9.936;2022-10-14T04:07:58;12.10;99.90
47961;DHT22;33721;48.852;9.936;2022-10-14T04:10:24;12.10;99.90
47961;DHT22;33721;48.852;9.936;2022-10-14T04:12:49;12.00;99.90
47961;DHT22;33721;48.852;9.936;2022-10-14T04:15:16;12.00;99.90
47961;DHT22;33721;48.852;9.936;2022-10-14T04:17:41;12.00;99.90
47961;DHT22;33721;48.852;9.936;2022-10-14T04:20:07;12.00;99.90
47961;DHT22;33721;48.852;9.936;2022-10-14T04:22:33;12.00;99.90
47961;DHT22;33721;48.852;9.936;2022-10-14T04:24:59;12.00;99.90
47961;DHT22;33721;48.852;9.936;2022-10-14T04:27:24;12.00;99.90
47961;DHT22;33721;48.852;9.936;2022-10-14T04:29:50;12.00;99.90
47961;DHT22;33721;48.852;9.936;2022-10-14T04:32:17;12.00;99.90
47961;DHT22;33721;48.852;9.936;2022-10-14T04:34:43;12.00;99.90
47961;DHT22;33721;48.852;9.936;2022-10-14T04:37:09;12.00;99.90
47961;DHT22;33721;48.852;9.936;2022-10-14T04:39:34;12.00;99.90
47961;DHT22;33721;48.852;9.936;2022-10-14T04:42:00;12.00;99.90
47961;DHT22;33721;48.852;9.936;2022-10-14T04:44:25;12.00;99.90
47961;DHT22;33721;48.852;9.936;2022-10-14T04:46:51;12.00;99.90
47961;DHT22;33721;48.852;9.936;2022-10-14T04:49:17;12.10;99.90
47961;DHT22;33721;48.852;9.936;2022-10-14T04:51:42;12.10;99.90
47961;DHT22;33721;48.852;9.936;2022-10-14T04:54:08;12.00;99.90
47961;DHT22;33721;48.852;9.936;2022-10-14T04:56:35;12.00;99.90
47961;DHT22;33721;48.852;9.936;2022-10-14T04:59:00;12.10;99.90
47961;DHT22;33721;48.852;9.936;2022-10-14T05:01:26;12.00;99.90
47961;DHT22;33721;48.852;9.936;2022-10-14T05:03:52;12.00;99.90
47961;DHT22;33721;48.852;9.936;2022-10-14T05:06:17;11.90;99.90
47961;DHT22;33721;48.852;9.936;2022-10-14T05:08:43;11.90;99.90
47961;DHT22;33721;48.852;9.936;2022-10-14T05:11:09;11.90;99.90
47961;DHT22;33721;48.852;9.936;2022-10-14T05:13:35;11.90;99.90
47961;DHT22;33721;48.852;9.936;2022-10-14T05:16:00;11.90;99.90
47961;DHT22;33721;48.852;9.936;2022-10-14T05:18:27;11.90;99.90
47961;DHT22;33721;48.852;9.936;2022-10-14T05:20:53;11.90;99.90
47961;DHT22;33721;48.852;9.936;2022-10-14T05:23:19;12.00;99.90
47961;DHT22;33721;48.852;9.936;2022-10-14T05:25:44;12.00;99.90
47961;DHT22;33721;48.852;9.936;2022-10-14T05:28:10;12.00;99.90
47961;DHT22;33721;48.852;9.936;2022-10-14T05:30:36;12.00;99.90
47961;DHT22;33721;48.852;9.936;2022-10-14T05:33:01;12.00;99.90
47961;DHT22;33721;48.852;9.936;2022-10-14T05:35:27;12.00;99.90
47961;DHT22;33721;48.852;9.936;2022-10-14T05:37:54;12.00;99.90
47961;DHT22;33721;48.852;9.936;2022-10-14T05:40:21;12.00;99.90
47961;DHT22;33721;48.852;9.936;2022-10-14T05:42:46;12.00;99.90
47961;DHT22;33721;48.852;9.936;2022-10-14T05:45:12;12.00;99.90
47961;DHT22;33721;48.852;9.936;2022-10-14T05:47:38;12.00;99.90
47961;DHT22;33721;48.852;9.936;2022-10-14T05:50:04;12.00;99.90
47961;DHT22;33721;48.852;9.936;2022-10-14T05:52:30;12.00;99.90
47961;DHT22;33721;48.852;9.936;2022-10-14T05:54:57;12.00;99.90
47961;DHT22;33721;48.852;9.936;2022-10-14T05:57:23;12.00;99.90
47961;DHT22;33721;48.852;9.936;2022-10-14T05:59:48;12.00;99.90
47961;DHT22;33721;48.852;9.936;2022-10-14T06:02:14;12.00;99.90
47961;DHT22;33721;48.852;9.936;2022-10-14T06:04:39;12.00;99.90
47961;DHT22;33721;48.852;9.936;2022-10-14T06:07:07;12.00;99.90
47961;DHT22;33721;48.852;9.936;2022-10-14T06:09:35;12.00;99.90
47961;DHT22;33721;48.852;9.936;2022-10-14T06:12:01;12.00;99.90
47961;DHT22;33721;48.852;9.936;2022-10-14T06:14:26;12.00;99.90
47961;DHT22;33721;48.852;9.936;2022-10-14T06:16:52;12.00;99.90
47961;DHT22;33721;48.852;9.936;2022-10-14T06:19:17;12.00;99.90
47961;DHT22;33721;48.852;9.936;2022-10-14T06:21:43;12.10;99.90
47961;DHT22;33721;48.852;9.936;2022-10-14T06:24:09;12.10;99.90
47961;DHT22;33721;48.852;9.936;2022-10-14T06:26:35;12.10;99.90
47961;DHT22;33721;48.852;9.936;2022-10-14T06:29:01;12.10;99.90
47961;DHT22;33721;48.852;9.936;2022-10-14T06:31:27;12.20;99.90
47961;DHT22;33721;48.852;9.936;2022-10-14T06:33:52;12.20;99.90
47961;DHT22;33721;48.852;9.936;2022-10-14T06:36:18;12.20;99.90
47961;DHT22;33721;48.852;9.936;2022-10-14T06:38:44;12.20;99.90
47961;DHT22;33721;48.852;9.936;2022-10-14T06:41:09;12.20;99.90
47961;DHT22;33721;48.852;9.936;2022-10-14T06:43:35;12.30;99.90
47961;DHT22;33721;48.852;9.936;2022-10-14T06:46:03;12.30;99.90
47961;DHT22;33721;48.852;9.936;2022-10-14T06:48:29;12.40;99.90
47961;DHT22;33721;48.852;9.936;2022-10-14T06:50:57;12.40;99.90
47961;DHT22;33721;48.852;9.936;2022-10-14T06:53:23;12.50;99.90
47961;DHT22;33721;48.852;9.936;2022-10-14T06:55:49;12.60;99.90
47961;DHT22;33721;48.852;9.936;2022-10-14T06:58:20;12.60;99.90
47961;DHT22;33721;48.852;9.936;2022-10-14T07:00:46;12.70;99.90
47961;DHT22;33721;48.852;9.936;2022-10-14T07:03:12;12.70;99.90
47961;DHT22;33721;48.852;9.936;2022-10-14T07:05:37;12.80;99.90
47961;DHT22;33721;48.852;9.936;2022-10-14T07:08:03;12.90;99.90
47961;DHT22;33721;48.852;9.936;2022-10-14T07:10:28;13.00;99.90
47961;DHT22;33721;48.852;9.936;2022-10-14T07:12:54;13.10;99.90
47961;DHT22;33721;48.852;9.936;2022-10-14T07:15:20;13.00;99.90
47961;DHT22;33721;48.852;9.936;2022-10-14T07:17:46;13.00;99.90
47961;DHT22;33721;48.852;9.936;2022-10-14T07:20:11;13.10;99.90
47961;DHT22;33721;48.852;9.936;2022-10-14T07:22:37;13.20;99.90
47961;DHT22;33721;48.852;9.936;2022-10-14T07:25:03;13.30;99.90
47961;DHT22;33721;48.852;9.936;2022-10-14T07:27:30;13.30;99.90
47961;DHT22;33721;48.852;9.936;2022-10-14T07:29:55;13.40;99.90
47961;DHT22;33721;48.852;9.936;2022-10-14T07:32:21;13.50;99.90
47961;DHT22;33721;48.852;9.936;2022-10-14T07:34:47;13.60;99.90
47961;DHT22;33721;48.852;9.936;2022-10-14T07:37:12;13.60;99.90
47961;DHT22;33721;48.852;9.936;2022-10-14T07:39:38;13.60;99.90
47961;DHT22;33721;48.852;9.936;2022-10-14T07:42:04;13.60;99.90
47961;DHT22;33721;48.852;9.936;2022-10-14T07:44:30;13.60;99.90
47961;DHT22;33721;48.852;9.936;2022-10-14T07:46:55;13.60;99.90
47961;DHT22;33721;48.852;9.936;2022-10-14T07:49:23;13.60;99.90
47961;DHT22;33721;48.852;9.936;2022-10-14T07:51:49;13.60;99.90
47961;DHT22;33721;48.852;9.936;2022-10-14T07:54:21;13.60;99.90
47961;DHT22;33721;48.852;9.936;2022-10-14T07:56:47;13.70;99.90
47961;DHT22;33721;48.852;9.936;2022-10-14T07:59:17;13.80;99.90
47961;DHT22;33721;48.852;9.936;2022-10-14T08:01:45;13.80;99.90
47961;DHT22;33721;48.852;9.936;2022-10-14T08:04:11;14.00;99.90
47961;DHT22;33721;48.852;9.936;2022-10-14T08:06:37;14.10;99.90
47961;DHT22;33721;48.852;9.936;2022-10-14T08:09:04;14.20;99.90
47961;DHT22;33721;48.852;9.936;2022-10-14T08:11:30;14.20;99.90
47961;DHT22;33721;48.852;9.936;2022-10-14T08:13:57;14.30;99.90
47961;DHT22;33721;48.852;9.936;2022-10-14T08:16:28;14.40;99.90
47961;DHT22;33721;48.852;9.936;2022-10-14T08:18:56;14.30;99.90
47961;DHT22;33721;48.852;9.936;2022-10-14T08:21:22;14.30;99.90
47961;DHT22;33721;48.852;9.936;2022-10-14T08:23:48;14.30;99.90
47961;DHT22;33721;48.852;9.936;2022-10-14T08:26:27;14.30;99.90
47961;DHT22;33721;48.852;9.936;2022-10-14T08:28:55;14.20;99.90
47961;DHT22;33721;48.852;9.936;2022-10-14T08:31:21;14.20;99.90
47961;DHT22;33721;48.852;9.936;2022-10-14T08:33:48;14.30;99.90
47961;DHT22;33721;48.852;9.936;2022-10-14T08:36:14;14.40;99.90
47961;DHT22;33721;48.852;9.936;2022-10-14T08:38:39;14.50;99.90
47961;DHT22;33721;48.852;9.936;2022-10-14T08:44:30;14.70;99.90
47961;DHT22;33721;48.852;9.936;2022-10-14T08:47:00;14.80;99.90
47961;DHT22;33721;48.852;9.936;2022-10-14T08:52:06;15.00;99.90
47961;DHT22;33721;48.852;9.936;2022-10-14T08:54:37;15.10;99.90
47961;DHT22;33721;48.852;9.936;2022-10-14T08:57:05;15.30;99.90
47961;DHT22;33721;48.852;9.936;2022-10-14T08:59:39;15.40;99.90
47961;DHT22;33721;48.852;9.936;2022-10-14T09:02:19;15.50;99.90
47961;DHT22;33721;48.852;9.936;2022-10-14T09:04:47;15.50;99.90
47961;DHT22;33721;48.852;9.936;2022-10-14T09:07:16;15.60;99.90
47961;DHT22;33721;48.852;9.936;2022-10-14T09:09:46;15.80;99.90
47961;DHT22;33721;48.852;9.936;2022-10-14T09:12:17;16.00;99.90
47961;DHT22;33721;48.852;9.936;2022-10-14T09:17:33;16.00;99.90
47961;DHT22;33721;48.852;9.936;2022-10-14T09:20:13;16.00;99.90
47961;DHT22;33721;48.852;9.936;2022-10-14T09:22:41;15.80;99.90
47961;DHT22;33721;48.852;9.936;2022-10-14T09:25:14;15.70;99.90
47961;DHT22;33721;48.852;9.936;2022-10-14T09:27:40;15.60;99.90
47961;DHT22;33721;48.852;9.936;2022-10-14T09:30:12;15.70;99.90
47961;DHT22;33721;48.852;9.936;2022-10-14T09:32:43;15.70;99.90
47961;DHT22;33721;48.852;9.936;2022-10-14T09:35:23;15.80;99.90
47961;DHT22;33721;48.852;9.936;2022-10-14T09:37:50;15.80;99.90
47961;DHT22;33721;48.852;9.936;2022-10-14T09:42:57;16.00;99.90
47961;DHT22;33721;48.852;9.936;2022-10-14T09:45:25;16.00;99.90
47961;DHT22;33721;48.852;9.936;2022-10-14T09:47:58;16.10;99.90
47961;DHT22;33721;48.852;9.936;2022-10-14T09:50:40;16.00;99.90
47961;DHT22;33721;48.852;9.936;2022-10-14T09:53:30;15.90;99.90
47961;DHT22;33721;48.852;9.936;2022-10-14T09:56:01;16.00;99.90
47961;DHT22;33721;48.852;9.936;2022-10-14T09:58:31;16.00;99.90
47961;DHT22;33721;48.852;9.936;2022-10-14T10:00:59;16.10;99.90
47961;DHT22;33721;48.852;9.936;2022-10-14T10:03:27;16.10;99.90
47961;DHT22;33721;48.852;9.936;2022-10-14T10:06:06;16.00;99.90
47961;DHT22;33721;48.852;9.936;2022-10-14T10:08:34;15.90;99.90
47961;DHT22;33721;48.852;9.936;2022-10-14T10:11:08;15.90;99.90
47961;DHT22;33721;48.852;9.936;2022-10-14T10:13:43;15.90;99.90
47961;DHT22;33721;48.852;9.936;2022-10-14T10:16:24;16.00;99.90
47961;DHT22;33721;48.852;9.936;2022-10-14T10:18:53;16.00;99.90
47961;DHT22;33721;48.852;9.936;2022-10-14T10:21:29;15.90;99.90
47961;DHT22;33721;48.852;9.936;2022-10-14T10:24:02;15.90;99.90
47961;DHT22;33721;48.852;9.936;2022-10-14T10:26:32;15.80;99.90
47961;DHT22;33721;48.852;9.936;2022-10-14T10:29:01;15.70;99.90
47961;DHT22;33721;48.852;9.936;2022-10-14T10:48:13;16.10;99.90
47961;DHT22;33721;48.852;9.936;2022-10-14T11:04:25;17.00;99.90
47961;DHT22;33721;48.852;9.936;2022-10-14T11:13:03;17.50;99.90
47961;DHT22;33721;48.852;9.936;2022-10-14T11:18:45;17.20;99.90
47961;DHT22;33721;48.852;9.936;2022-10-14T11:26:45;17.40;99.90
47961;DHT22;33721;48.852;9.936;2022-10-14T11:32:37;17.30;99.90
47961;DHT22;33721;48.852;9.936;2022-10-14T11:35:36;17.40;99.90
47961;DHT22;33721;48.852;9.936;2022-10-14T11:46:10;17.20;99.90
47961;DHT22;33721;48.852;9.936;2022-10-14T11:48:50;17.00;99.90
47961;DHT22;33721;48.852;9.936;2022-10-14T11:51:23;17.00;99.90
47961;DHT22;33721;48.852;9.936;2022-10-14T12:05:18;16.80;99.90
47961;DHT22;33721;48.852;9.936;2022-10-14T12:10:39;16.80;99.90
47961;DHT22;33721;48.852;9.936;2022-10-14T12:13:17;16.80;99.90
47961;DHT22;33721;48.852;9.936;2022-10-14T12:15:48;16.90;99.90
47961;DHT22;33721;48.852;9.936;2022-10-14T12:18:14;16.90;99.90
47961;DHT22;33721;48.852;9.936;2022-10-14T12:23:07;16.70;99.90
47961;DHT22;33721;48.852;9.936;2022-10-14T12:25:45;16.70;99.90
47961;DHT22;33721;48.852;9.936;2022-10-14T12:28:15;16.60;99.90
47961;DHT22;33721;48.852;9.936;2022-10-14T12:30:43;16.60;99.90
47961;DHT22;33721;48.852;9.936;2022-10-14T12:33:11;16.50;99.90
47961;DHT22;33721;48.852;9.936;2022-10-14T12:36:03;16.50;99.90
47961;DHT22;33721;48.852;9.936;2022-10-14T12:38:31;16.40;99.90
47961;DHT22;33721;48.852;9.936;2022-10-14T12:41:32;16.40;99.90
47961;DHT22;33721;48.852;9.936;2022-10-14T12:44:11;16.30;99.90
47961;DHT22;33721;48.852;9.936;2022-10-14T12:46:43;16.30;99.90
47961;DHT22;33721;48.852;9.936;2022-10-14T12:49:21;16.30;99.90
47961;DHT22;33721;48.852;9.936;2022-10-14T12:51:54;16.20;99.90
47961;DHT22;33721;48.852;9.936;2022-10-14T12:54:21;16.10;99.90
47961;DHT22;33721;48.852;9.936;2022-10-14T12:57:00;16.10;99.90
47961;DHT22;33721;48.852;9.936;2022-10-14T12:59:35;16.00;99.90
47961;DHT22;33721;48.852;9.936;2022-10-14T13:02:13;15.90;99.90
47961;DHT22;33721;48.852;9.936;2022-10-14T13:04:50;15.90;99.90
47961;DHT22;33721;48.852;9.936;2022-10-14T13:09:43;15.70;99.90
47961;DHT22;33721;48.852;9.936;2022-10-14T13:14:58;15.60;99.90
47961;DHT22;33721;48.852;9.936;2022-10-14T13:20:00;15.60;99.90
47961;DHT22;33721;48.852;9.936;2022-10-14T13:25:16;15.60;99.90
47961;DHT22;33721;48.852;9.936;2022-10-14T13:30:55;15.70;99.90
47961;DHT22;33721;48.852;9.936;2022-10-14T13:33:49;15.90;99.90
47961;DHT22;33721;48.852;9.936;2022-10-14T13:36:22;16.00;99.90
47961;DHT22;33721;48.852;9.936;2022-10-14T13:38:57;16.10;99.90
47961;DHT22;33721;48.852;9.936;2022-10-14T13:41:25;16.10;99.90
47961;DHT22;33721;48.852;9.936;2022-10-14T13:43:54;16.20;99.90
47961;DHT22;33721;48.852;9.936;2022-10-14T13:46:40;16.20;99.90
47961;DHT22;33721;48.852;9.936;2022-10-14T13:49:07;16.20;99.90
47961;DHT22;33721;48.852;9.936;2022-10-14T13:56:40;16.20;99.90
47961;DHT22;33721;48.852;9.936;2022-10-14T13:59:21;16.20;99.90
47961;DHT22;33721;48.852;9.936;2022-10-14T14:01:51;16.20;99.90
47961;DHT22;33721;48.852;9.936;2022-10-14T14:04:24;16.20;99.90
47961;DHT22;33721;48.852;9.936;2022-10-14T14:06:51;16.10;99.90
47961;DHT22;33721;48.852;9.936;2022-10-14T14:09:23;16.10;99.90
47961;DHT22;33721;48.852;9.936;2022-10-14T14:11:51;16.10;99.90
47961;DHT22;33721;48.852;9.936;2022-10-14T14:14:37;16.10;99.90
47961;DHT22;33721;48.852;9.936;2022-10-14T14:17:10;16.10;99.90
47961;DHT22;33721;48.852;9.936;2022-10-14T14:19:37;16.10;99.90
47961;DHT22;33721;48.852;9.936;2022-10-14T14:22:27;16.10;99.90
47961;DHT22;33721;48.852;9.936;2022-10-14T14:27:50;16.20;99.90
47961;DHT22;33721;48.852;9.936;2022-10-14T14:32:46;16.10;99.90
47961;DHT22;33721;48.852;9.936;2022-10-14T14:35:12;16.10;99.90
47961;DHT22;33721;48.852;9.936;2022-10-14T14:37:41;16.10;99.90
47961;DHT22;33721;48.852;9.936;2022-10-14T14:40:22;16.10;99.90
47961;DHT22;33721;48.852;9.936;2022-10-14T14:42:53;16.00;99.90
47961;DHT22;33721;48.852;9.936;2022-10-14T14:45:25;15.90;99.90
47961;DHT22;33721;48.852;9.936;2022-10-14T14:47:53;15.90;99.90
47961;DHT22;33721;48.852;9.936;2022-10-14T14:50:27;15.90;99.90
47961;DHT22;33721;48.852;9.936;2022-10-14T14:52:56;15.80;99.90
47961;DHT22;33721;48.852;9.936;2022-10-14T14:55:33;15.90;99.90
47961;DHT22;33721;48.852;9.936;2022-10-14T14:58:00;15.90;99.90
47961;DHT22;33721;48.852;9.936;2022-10-14T15:00:27;16.00;99.90
47961;DHT22;33721;48.852;9.936;2022-10-14T15:02:58;16.00;99.90
47961;DHT22;33721;48.852;9.936;2022-10-14T15:05:24;16.00;99.90
47961;DHT22;33721;48.852;9.936;2022-10-14T15:07:50;16.00;99.90
47961;DHT22;33721;48.852;9.936;2022-10-14T15:10:27;16.00;99.90
47961;DHT22;33721;48.852;9.936;2022-10-14T15:12:57;16.00;99.90
47961;DHT22;33721;48.852;9.936;2022-10-14T15:15:33;16.00;99.90
47961;DHT22;33721;48.852;9.936;2022-10-14T15:18:12;15.80;99.90
47961;DHT22;33721;48.852;9.936;2022-10-14T15:20:38;15.70;99.90
47961;DHT22;33721;48.852;9.936;2022-10-14T15:26:30;15.40;99.90
47961;DHT22;33721;48.852;9.936;2022-10-14T15:31:33;15.20;99.90
47961;DHT22;33721;48.852;9.936;2022-10-14T15:34:00;15.00;99.90
47961;DHT22;33721;48.852;9.936;2022-10-14T15:36:31;15.00;99.90
47961;DHT22;33721;48.852;9.936;2022-10-14T15:38:57;14.90;99.90
47961;DHT22;33721;48.852;9.936;2022-10-14T15:41:25;14.90;99.90
47961;DHT22;33721;48.852;9.936;2022-10-14T15:43:50;14.80;99.90
47961;DHT22;33721;48.852;9.936;2022-10-14T15:46:16;14.70;99.90
47961;DHT22;33721;48.852;9.936;2022-10-14T15:49:03;14.60;99.90
47961;DHT22;33721;48.852;9.936;2022-10-14T15:51:29;14.60;99.90
47961;DHT22;33721;48.852;9.936;2022-10-14T15:53:56;14.60;99.90
47961;DHT22;33721;48.852;9.936;2022-10-14T15:56:22;14.60;99.90
47961;DHT22;33721;48.852;9.936;2022-10-14T15:58:48;14.60;99.90
47961;DHT22;33721;48.852;9.936;2022-10-14T16:01:19;14.50;99.90
47961;DHT22;33721;48.852;9.936;2022-10-14T16:03:46;14.50;99.90
47961;DHT22;33721;48.852;9.936;2022-10-14T16:06:12;14.50;99.90
47961;DHT22;33721;48.852;9.936;2022-10-14T16:08:40;14.50;99.90
47961;DHT22;33721;48.852;9.936;2022-10-14T16:11:25;14.50;99.90
47961;DHT22;33721;48.852;9.936;2022-10-14T16:13:50;14.50;99.90
47961;DHT22;33721;48.852;9.936;2022-10-14T16:16:22;14.60;99.90
47961;DHT22;33721;48.852;9.936;2022-10-14T16:18:48;14.60;99.90
47961;DHT22;33721;48.852;9.936;2022-10-14T16:21:15;14.50;99.90
47961;DHT22;33721;48.852;9.936;2022-10-14T16:23:42;14.60;99.90
47961;DHT22;33721;48.852;9.936;2022-10-14T16:26:08;14.60;99.90
47961;DHT22;33721;48.852;9.936;2022-10-14T16:28:35;14.60;99.90
47961;DHT22;33721;48.852;9.936;2022-10-14T16:31:00;14.60;99.90
47961;DHT22;33721;48.852;9.936;2022-10-14T16:33:26;14.60;99.90
47961;DHT22;33721;48.852;9.936;2022-10-14T16:35:53;14.60;99.90
47961;DHT22;33721;48.852;9.936;2022-10-14T16:38:20;14.60;99.90
47961;DHT22;33721;48.852;9.936;2022-10-14T16:40:56;14.70;99.90
47961;DHT22;33721;48.852;9.936;2022-10-14T16:43:22;14.70;99.90
47961;DHT22;33721;48.852;9.936;2022-10-14T16:45:48;14.60;99.90
47961;DHT22;33721;48.852;9.936;2022-10-14T16:48:14;14.60;99.90
47961;DHT22;33721;48.852;9.936;2022-10-14T16:50:41;14.60;99.90
47961;DHT22;33721;48.852;9.936;2022-10-14T16:53:07;14.60;99.90
47961;DHT22;33721;48.852;9.936;2022-10-14T16:55:51;14.60;99.90
47961;DHT22;33721;48.852;9.936;2022-10-14T16:58:20;14.60;99.90
47961;DHT22;33721;48.852;9.936;2022-10-14T17:00:46;14.50;99.90
47961;DHT22;33721;48.852;9.936;2022-10-14T17:03:11;14.50;99.90
47961;DHT22;33721;48.852;9.936;2022-10-14T17:05:37;14.40;99.90
47961;DHT22;33721;48.852;9.936;2022-10-14T17:08:02;14.40;99.90
47961;DHT22;33721;48.852;9.936;2022-10-14T17:10:28;14.40;99.90
47961;DHT22;33721;48.852;9.936;2022-10-14T17:12:54;14.40;99.90
47961;DHT22;33721;48.852;9.936;2022-10-14T17:15:19;14.40;99.90
47961;DHT22;33721;48.852;9.936;2022-10-14T17:17:45;14.30;99.90
47961;DHT22;33721;48.852;9.936;2022-10-14T17:20:11;14.30;99.90
47961;DHT22;33721;48.852;9.936;2022-10-14T17:22:36;14.30;99.90
47961;DHT22;33721;48.852;9.936;2022-10-14T17:25:02;14.40;99.90
47961;DHT22;33721;48.852;9.936;2022-10-14T17:27:29;14.40;99.90
47961;DHT22;33721;48.852;9.936;2022-10-14T17:29:55;14.40;99.90
47961;DHT22;33721;48.852;9.936;2022-10-14T17:32:20;14.40;99.90
47961;DHT22;33721;48.852;9.936;2022-10-14T17:34:46;14.40;99.90
47961;DHT22;33721;48.852;9.936;2022-10-14T17:37:12;14.40;99.90
47961;DHT22;33721;48.852;9.936;2022-10-14T17:39:37;14.30;99.90
47961;DHT22;33721;48.852;9.936;2022-10-14T17:42:03;14.30;99.90
47961;DHT22;33721;48.852;9.936;2022-10-14T17:44:29;14.30;99.90
47961;DHT22;33721;48.852;9.936;2022-10-14T17:46:54;14.30;99.90
47961;DHT22;33721;48.852;9.936;2022-10-14T17:49:21;14.20;99.90
47961;DHT22;33721;48.852;9.936;2022-10-14T17:51:47;14.20;99.90
47961;DHT22;33721;48.852;9.936;2022-10-14T17:54:15;14.20;99.90
47961;DHT22;33721;48.852;9.936;2022-10-14T17:56:41;14.30;99.90
47961;DHT22;33721;48.852;9.936;2022-10-14T17:59:09;14.30;99.90
47961;DHT22;33721;48.852;9.936;2022-10-14T18:01:35;14.20;99.90
47961;DHT22;33721;48.852;9.936;2022-10-14T18:04:01;14.20;99.90